Time;durP1;ratioP1;P1;durP2;ratioP2;P2;SDS_P1;SDS_P2;PMS_P1;PMS_P2;Temp;Humidity;BMP_temperature;BMP_pressure;BME280_temperature;BME280_humidity;BME280_pressure;Samples;Min_cycle;Max_cycle;Signal;HPM_P1;HPM_P2
2023/07/24 00:02:09;;;;;;;0.00;0.00;;;;;;;;;;5073231;28;20472;-80
2023/07/24 00:04:35;;;;;;;0.32;0.32;;;;;;;;;;5072429;28;20128;-80
2023/07/24 00:07:01;;;;;;;0.00;0.00;;;;;;;;;;5073375;28;20492;-80
2023/07/24 00:09:27;;;;;;;0.00;0.00;;;;;;;;;;5072236;28;20051;-80
2023/07/24 00:11:53;;;;;;;0.00;0.00;;;;;;;;;;5071863;28;20512;-80
2023/07/24 00:14:19;;;;;;;0.00;0.00;;;;;;;;;;5072195;28;20044;-80
2023/07/24 00:16:45;;;;;;;0.00;0.00;;;;;;;;;;5072192;28;20048;-80
2023/07/24 00:19:11;;;;;;;0.00;0.00;;;;;;;;;;5073473;28;20047;-80
2023/07/24 00:21:37;;;;;;;0.00;0.00;;;;;;;;;;5071690;28;20055;-80
2023/07/24 00:24:03;;;;;;;0.00;0.00;;;;;;;;;;5073405;28;20080;-80
2023/07/24 00:26:29;;;;;;;0.00;0.00;;;;;;;;;;5073078;28;20410;-80
2023/07/24 00:28:55;;;;;;;0.00;0.00;;;;;;;;;;5072070;28;20180;-80
2023/07/24 00:31:21;;;;;;;0.00;0.00;;;;;;;;;;5072902;28;20106;-80
2023/07/24 00:33:47;;;;;;;0.00;0.00;;;;;;;;;;5073073;28;20076;-80
2023/07/24 00:36:13;;;;;;;0.00;0.00;;;;;;;;;;5071509;28;20041;-80
2023/07/24 00:38:39;;;;;;;0.00;0.00;;;;;;;;;;5072167;28;20036;-80
2023/07/24 00:41:05;;;;;;;0.00;0.00;;;;;;;;;;5072929;28;20078;-80
2023/07/24 00:43:31;;;;;;;0.00;0.00;;;;;;;;;;5072561;28;20439;-80
2023/07/24 00:45:57;;;;;;;0.00;0.00;;;;;;;;;;5072783;28;20052;-80
2023/07/24 00:48:23;;;;;;;0.00;0.00;;;;;;;;;;5071556;28;20150;-80
2023/07/24 00:50:50;;;;;;;0.00;0.00;;;;;;;;;;5072807;28;20488;-81
2023/07/24 00:53:16;;;;;;;0.00;0.00;;;;;;;;;;5072663;28;20110;-80
2023/07/24 00:55:42;;;;;;;0.00;0.00;;;;;;;;;;5072877;28;20040;-80
2023/07/24 00:58:11;;;;;;;0.00;0.00;;;;;;;;;;5071548;28;20058;-80
2023/07/24 01:00:38;;;;;;;0.00;0.00;;;;;;;;;;5071449;28;20047;-81
2023/07/24 01:03:04;;;;;;;0.00;0.00;;;;;;;;;;5071570;28;20041;-80
2023/07/24 01:05:30;;;;;;;0.00;0.00;;;;;;;;;;5072900;28;20561;-80
2023/07/24 01:07:56;;;;;;;0.00;0.00;;;;;;;;;;5071400;28;20075;-80
2023/07/24 01:10:22;;;;;;;0.00;0.00;;;;;;;;;;5071413;28;20090;-79
2023/07/24 01:13:15;;;;;;;0.00;0.00;;;;;;;;;;5071506;28;20180;-80
2023/07/24 01:15:57;;;;;;;0.00;0.00;;;;;;;;;;5072787;28;20070;-80
2023/07/24 01:18:25;;;;;;;0.00;0.00;;;;;;;;;;5072643;28;20033;-80
2023/07/24 01:20:55;;;;;;;0.00;0.00;;;;;;;;;;5071308;28;20079;-80
2023/07/24 01:23:21;;;;;;;0.00;0.00;;;;;;;;;;5072374;28;20059;-80
2023/07/24 01:25:50;;;;;;;0.00;0.00;;;;;;;;;;5071373;28;20426;-80
2023/07/24 01:28:16;;;;;;;0.00;0.00;;;;;;;;;;5072575;28;20032;-80
2023/07/24 01:30:42;;;;;;;0.00;0.00;;;;;;;;;;5072425;28;20535;-80
2023/07/24 01:33:08;;;;;;;0.00;0.00;;;;;;;;;;5071063;28;20052;-80
2023/07/24 01:35:34;;;;;;;0.00;0.00;;;;;;;;;;5071325;28;20380;-79
2023/07/24 01:38:00;;;;;;;0.00;0.00;;;;;;;;;;5072128;28;20051;-80
2023/07/24 01:40:26;;;;;;;0.00;0.00;;;;;;;;;;5071118;28;20048;-80
2023/07/24 01:42:52;;;;;;;0.00;0.00;;;;;;;;;;5072361;28;20392;-80
2023/07/24 01:45:18;;;;;;;0.00;0.00;;;;;;;;;;5072304;28;20140;-80
2023/07/24 01:47:44;;;;;;;0.00;0.00;;;;;;;;;;5072300;28;20048;-80
2023/07/24 01:50:11;;;;;;;0.00;0.00;;;;;;;;;;5071326;28;20048;-80
2023/07/24 01:52:37;;;;;;;0.00;0.00;;;;;;;;;;5072121;28;20449;-81
2023/07/24 01:55:03;;;;;;;0.00;0.00;;;;;;;;;;5072882;28;20047;-80
2023/07/24 01:57:29;;;;;;;0.00;0.00;;;;;;;;;;5074615;28;20033;-80
2023/07/24 01:59:55;;;;;;;0.00;0.00;;;;;;;;;;5074488;28;20498;-80
2023/07/24 02:02:21;;;;;;;0.00;0.00;;;;;;;;;;5074593;28;20044;-80
2023/07/24 02:04:47;;;;;;;0.00;0.00;;;;;;;;;;5074656;28;20047;-80
2023/07/24 02:07:13;;;;;;;0.00;0.00;;;;;;;;;;5074549;28;20056;-80
2023/07/24 02:09:39;;;;;;;0.00;0.00;;;;;;;;;;5075814;28;20047;-80
2023/07/24 02:12:05;;;;;;;0.00;0.00;;;;;;;;;;5074559;28;20467;-80
2023/07/24 02:14:31;;;;;;;0.00;0.00;;;;;;;;;;5074352;28;20127;-79
2023/07/24 02:16:57;;;;;;;0.00;0.00;;;;;;;;;;5074293;28;20090;-80
2023/07/24 02:19:23;;;;;;;0.00;0.00;;;;;;;;;;5075307;28;20079;-80
2023/07/24 02:21:49;;;;;;;0.00;0.00;;;;;;;;;;5057723;28;20040;-80
2023/07/24 02:24:15;;;;;;;0.00;0.00;;;;;;;;;;5075372;28;20070;-80
2023/07/24 02:26:41;;;;;;;0.00;0.00;;;;;;;;;;5074388;28;20123;-80
2023/07/24 02:29:07;;;;;;;0.00;0.00;;;;;;;;;;5075307;28;20040;-80
2023/07/24 02:31:33;;;;;;;0.00;0.00;;;;;;;;;;5075228;28;20501;-80
2023/07/24 02:33:59;;;;;;;0.00;0.00;;;;;;;;;;5057035;28;20033;-80
2023/07/24 02:36:25;;;;;;;0.00;0.00;;;;;;;;;;5073945;28;20127;-80
2023/07/24 02:38:51;;;;;;;0.00;0.00;;;;;;;;;;5075109;28;20036;-80
2023/07/24 02:41:17;;;;;;;0.00;0.00;;;;;;;;;;5073931;28;20033;-80
2023/07/24 02:43:43;;;;;;;0.00;0.00;;;;;;;;;;5073842;28;20051;-80
2023/07/24 02:46:09;;;;;;;0.00;0.00;;;;;;;;;;5073527;28;20056;-80
2023/07/24 02:48:36;;;;;;;0.00;0.00;;;;;;;;;;5073564;28;20415;-80
2023/07/24 02:51:02;;;;;;;0.00;0.00;;;;;;;;;;5073520;28;20131;-80
2023/07/24 02:53:28;;;;;;;0.00;0.00;;;;;;;;;;5073447;28;20048;-80
2023/07/24 02:55:54;;;;;;;0.00;0.00;;;;;;;;;;5074808;28;20033;-80
2023/07/24 02:58:19;;;;;;;0.00;0.00;;;;;;;;;;5073651;28;20052;-80
2023/07/24 03:00:45;;;;;;;0.00;0.00;;;;;;;;;;5074637;28;20495;-81
2023/07/24 03:03:11;;;;;;;0.00;0.00;;;;;;;;;;5074563;28;20036;-80
2023/07/24 03:05:38;;;;;;;0.00;0.00;;;;;;;;;;5074979;28;20424;-79
2023/07/24 03:08:04;;;;;;;0.00;0.00;;;;;;;;;;5072995;28;20040;-80
2023/07/24 03:10:30;;;;;;;0.00;0.00;;;;;;;;;;5073529;28;20478;-80
2023/07/24 03:12:56;;;;;;;0.00;0.00;;;;;;;;;;5073130;28;20040;-80
2023/07/24 03:15:22;;;;;;;0.00;0.00;;;;;;;;;;5074313;28;20040;-80
2023/07/24 03:17:48;;;;;;;0.00;0.00;;;;;;;;;;5073080;28;20094;-80
2023/07/24 03:20:15;;;;;;;0.00;0.00;;;;;;;;;;5074429;28;20303;-80
2023/07/24 03:22:41;;;;;;;0.00;0.00;;;;;;;;;;5073256;28;20435;-80
2023/07/24 03:25:08;;;;;;;0.00;0.00;;;;;;;;;;5072625;28;20422;-80
2023/07/24 03:27:33;;;;;;;0.00;0.00;;;;;;;;;;5074390;28;20043;-80
2023/07/24 03:29:59;;;;;;;0.00;0.00;;;;;;;;;;5073853;28;20048;-80
2023/07/24 03:32:25;;;;;;;0.00;0.00;;;;;;;;;;5074006;28;20036;-80
2023/07/24 03:34:52;;;;;;;0.00;0.00;;;;;;;;;;5073809;28;20534;-79
2023/07/24 03:37:18;;;;;;;0.00;0.00;;;;;;;;;;5072819;28;20095;-80
2023/07/24 03:39:44;;;;;;;0.00;0.00;;;;;;;;;;5073841;28;20064;-80
2023/07/24 03:42:12;;;;;;;0.00;0.00;;;;;;;;;;5073966;28;20052;-80
2023/07/24 03:44:39;;;;;;;0.00;0.00;;;;;;;;;;5055553;28;20177;-80
2023/07/24 03:47:05;;;;;;;0.00;0.00;;;;;;;;;;5072838;28;20412;-80
2023/07/24 03:49:31;;;;;;;0.00;0.00;;;;;;;;;;5072360;28;20062;-80
2023/07/24 03:51:56;;;;;;;0.00;0.00;;;;;;;;;;5072580;28;20042;-79
2023/07/24 03:54:22;;;;;;;0.30;0.20;;;;;;;;;;5072090;28;20392;-80
2023/07/24 03:56:48;;;;;;;0.00;0.00;;;;;;;;;;5072424;28;20127;-80
2023/07/24 03:59:14;;;;;;;0.00;0.00;;;;;;;;;;5073320;28;20040;-80
2023/07/24 04:01:40;;;;;;;0.00;0.00;;;;;;;;;;5073417;28;20446;-80
2023/07/24 04:04:06;;;;;;;0.00;0.00;;;;;;;;;;5055368;28;20043;-80
2023/07/24 04:06:32;;;;;;;0.00;0.00;;;;;;;;;;5072222;28;20507;-80
2023/07/24 04:08:58;;;;;;;0.00;0.00;;;;;;;;;;5073345;28;20037;-80
2023/07/24 04:11:24;;;;;;;0.00;0.00;;;;;;;;;;5073327;28;20372;-80
2023/07/24 04:13:50;;;;;;;0.00;0.00;;;;;;;;;;5071979;28;20106;-80
2023/07/24 04:16:16;;;;;;;0.00;0.00;;;;;;;;;;5072042;28;20078;-80
2023/07/24 04:18:42;;;;;;;0.00;0.00;;;;;;;;;;5071792;28;20037;-80
2023/07/24 04:21:08;;;;;;;0.00;0.00;;;;;;;;;;5073388;28;20068;-80
2023/07/24 04:23:34;;;;;;;0.00;0.00;;;;;;;;;;5071858;28;20123;-80
2023/07/24 04:26:00;;;;;;;0.00;0.00;;;;;;;;;;5073294;28;20070;-80
2023/07/24 04:28:26;;;;;;;0.00;0.00;;;;;;;;;;5073197;28;20572;-80
2023/07/24 04:30:52;;;;;;;0.00;0.00;;;;;;;;;;5071779;28;20114;-80
2023/07/24 04:33:18;;;;;;;0.00;0.00;;;;;;;;;;5071910;28;20079;-79
2023/07/24 04:35:48;;;;;;;0.00;0.00;;;;;;;;;;5073021;28;20076;-81
2023/07/24 04:38:14;;;;;;;0.00;0.00;;;;;;;;;;5073238;28;20032;-82
2023/07/24 04:40:40;;;;;;;0.00;0.00;;;;;;;;;;5071917;28;20048;-80
2023/07/24 04:43:07;;;;;;;0.00;0.00;;;;;;;;;;5073089;28;20048;-80
2023/07/24 04:45:33;;;;;;;0.00;0.00;;;;;;;;;;5072621;28;20105;-80
2023/07/24 04:47:59;;;;;;;0.00;0.00;;;;;;;;;;5073190;28;20119;-80
2023/07/24 04:50:25;;;;;;;0.00;0.00;;;;;;;;;;5071423;28;20484;-79
2023/07/24 04:52:51;;;;;;;0.00;0.00;;;;;;;;;;5072836;28;20170;-79
2023/07/24 04:55:17;;;;;;;0.00;0.00;;;;;;;;;;5071240;28;20040;-80
2023/07/24 04:57:43;;;;;;;0.00;0.00;;;;;;;;;;5072904;28;20061;-80
2023/07/24 05:00:12;;;;;;;0.00;0.00;;;;;;;;;;5072796;28;20047;-80
2023/07/24 05:02:38;;;;;;;0.00;0.00;;;;;;;;;;5073080;28;20098;-80
2023/07/24 05:05:04;;;;;;;0.00;0.00;;;;;;;;;;5071586;28;20044;-80
2023/07/24 05:07:30;;;;;;;0.20;0.20;;;;;;;;;;5072935;28;20530;-80
2023/07/24 05:09:56;;;;;;;0.00;0.00;;;;;;;;;;5071176;28;20033;-80
2023/07/24 05:12:22;;;;;;;0.00;0.00;;;;;;;;;;5071565;28;20072;-80
2023/07/24 05:14:48;;;;;;;0.00;0.00;;;;;;;;;;5072218;28;20075;-80
2023/07/24 05:17:14;;;;;;;0.00;0.00;;;;;;;;;;5072951;28;20548;-80
2023/07/24 05:19:40;;;;;;;0.00;0.00;;;;;;;;;;5054287;28;20123;-79
2023/07/24 05:22:06;;;;;;;0.00;0.00;;;;;;;;;;5072807;28;20075;-80
2023/07/24 05:24:32;;;;;;;0.00;0.00;;;;;;;;;;5072528;28;20090;-80
2023/07/24 05:26:58;;;;;;;0.00;0.00;;;;;;;;;;5072530;28;20041;-80
2023/07/24 05:29:24;;;;;;;0.00;0.00;;;;;;;;;;5071249;28;20040;-80
2023/07/24 05:31:50;;;;;;;0.00;0.00;;;;;;;;;;5074777;28;20461;-80
2023/07/24 05:34:16;;;;;;;0.00;0.00;;;;;;;;;;5076271;28;20040;-80
2023/07/24 05:36:42;;;;;;;0.00;0.00;;;;;;;;;;5074589;28;20135;-80
2023/07/24 05:39:08;;;;;;;0.00;0.00;;;;;;;;;;5075741;28;20338;-80
2023/07/24 05:41:34;;;;;;;0.00;0.00;;;;;;;;;;5075400;28;20342;-80
2023/07/24 05:44:00;;;;;;;0.00;0.00;;;;;;;;;;5075862;28;20071;-80
2023/07/24 05:46:26;;;;;;;0.00;0.00;;;;;;;;;;5073946;28;20052;-80
2023/07/24 05:48:52;;;;;;;0.00;0.00;;;;;;;;;;5074388;28;20250;-80
2023/07/24 05:51:18;;;;;;;0.00;0.00;;;;;;;;;;5073894;28;20074;-81
2023/07/24 05:53:44;;;;;;;0.00;0.00;;;;;;;;;;5074297;28;20048;-81
2023/07/24 05:56:10;;;;;;;0.00;0.00;;;;;;;;;;5075614;28;20123;-81
2023/07/24 05:58:36;;;;;;;0.00;0.00;;;;;;;;;;5075545;28;20040;-84
2023/07/24 06:01:02;;;;;;;0.00;0.00;;;;;;;;;;5073722;28;20040;-81
2023/07/24 06:03:28;;;;;;;0.00;0.00;;;;;;;;;;5074177;28;20059;-81
2023/07/24 06:05:54;;;;;;;0.00;0.00;;;;;;;;;;5075027;28;20534;-80
2023/07/24 06:08:21;;;;;;;0.00;0.00;;;;;;;;;;5057378;28;20044;-80
2023/07/24 06:10:50;;;;;;;0.00;0.00;;;;;;;;;;5073760;28;20392;-80
2023/07/24 06:13:17;;;;;;;0.00;0.00;;;;;;;;;;5073720;28;20131;-79
2023/07/24 06:15:43;;;;;;;0.00;0.00;;;;;;;;;;5073425;28;20041;-80
2023/07/24 06:18:09;;;;;;;0.00;0.00;;;;;;;;;;5073958;28;20079;-79
2023/07/24 06:20:35;;;;;;;0.00;0.00;;;;;;;;;;5073482;28;20064;-80
2023/07/24 06:23:03;;;;;;;0.00;0.00;;;;;;;;;;5075481;28;20456;-80
2023/07/24 06:25:30;;;;;;;0.00;0.00;;;;;;;;;;5074881;28;20063;-79
2023/07/24 06:27:56;;;;;;;0.00;0.00;;;;;;;;;;5073897;28;20068;-79
2023/07/24 06:30:22;;;;;;;0.00;0.00;;;;;;;;;;5073254;28;20498;-79
2023/07/24 06:32:48;;;;;;;0.00;0.00;;;;;;;;;;5073677;28;20040;-80
2023/07/24 06:35:14;;;;;;;0.00;0.00;;;;;;;;;;5074566;28;20129;-79
2023/07/24 06:37:40;;;;;;;0.00;0.00;;;;;;;;;;5073450;28;20085;-79
2023/07/24 06:40:07;;;;;;;0.00;0.00;;;;;;;;;;5074564;28;20090;-79
2023/07/24 06:42:33;;;;;;;0.00;0.00;;;;;;;;;;5073143;28;20455;-79
2023/07/24 06:44:59;;;;;;;0.00;0.00;;;;;;;;;;5074040;28;20512;-79
2023/07/24 06:47:25;;;;;;;0.00;0.00;;;;;;;;;;5074504;28;20033;-80
2023/07/24 06:49:51;;;;;;;0.00;0.00;;;;;;;;;;5074225;28;20464;-81
2023/07/24 06:52:17;;;;;;;0.00;0.00;;;;;;;;;;5074280;28;20090;-81
2023/07/24 06:54:43;;;;;;;0.00;0.00;;;;;;;;;;5074541;28;20388;-79
2023/07/24 06:57:09;;;;;;;0.00;0.00;;;;;;;;;;5074258;28;20076;-79
2023/07/24 06:59:35;;;;;;;0.00;0.00;;;;;;;;;;5072909;28;20049;-79
2023/07/24 07:02:01;;;;;;;0.00;0.00;;;;;;;;;;5074040;28;20480;-79
2023/07/24 07:04:27;;;;;;;0.00;0.00;;;;;;;;;;5072918;28;20125;-79
2023/07/24 07:06:53;;;;;;;0.00;0.00;;;;;;;;;;5072469;28;20072;-79
2023/07/24 07:09:19;;;;;;;0.00;0.00;;;;;;;;;;5073938;28;20452;-80
2023/07/24 07:11:45;;;;;;;0.00;0.00;;;;;;;;;;5073867;28;20116;-79
2023/07/24 07:14:12;;;;;;;0.00;0.00;;;;;;;;;;5074213;28;20036;-80
2023/07/24 07:16:38;;;;;;;0.00;0.00;;;;;;;;;;5073578;28;20051;-80
2023/07/24 07:19:05;;;;;;;0.00;0.00;;;;;;;;;;5072831;28;20049;-79
2023/07/24 07:21:31;;;;;;;0.00;0.00;;;;;;;;;;5073502;28;20070;-80
2023/07/24 07:23:57;;;;;;;0.00;0.00;;;;;;;;;;5072481;28;20390;-79
2023/07/24 07:26:23;;;;;;;0.00;0.00;;;;;;;;;;5073643;28;20098;-79
2023/07/24 07:28:50;;;;;;;0.00;0.00;;;;;;;;;;5073769;28;20454;-80
2023/07/24 07:31:16;;;;;;;1.67;0.00;;;;;;;;;;5072099;28;20373;-79
2023/07/24 07:33:42;;;;;;;0.00;0.00;;;;;;;;;;5072258;28;20045;-79
2023/07/24 07:36:08;;;;;;;0.00;0.00;;;;;;;;;;5073295;28;20109;-80
2023/07/24 07:38:34;;;;;;;0.00;0.00;;;;;;;;;;5073673;28;20042;-79
2023/07/24 07:41:04;;;;;;;0.00;0.00;;;;;;;;;;5073606;28;20036;-80
2023/07/24 07:43:30;;;;;;;0.00;0.00;;;;;;;;;;5072330;28;20174;-79
2023/07/24 07:45:56;;;;;;;0.00;0.00;;;;;;;;;;5073093;28;20092;-80
2023/07/24 07:48:22;;;;;;;0.00;0.00;;;;;;;;;;5072281;28;20436;-80
2023/07/24 07:50:52;;;;;;;0.00;0.00;;;;;;;;;;5071833;28;20052;-80
2023/07/24 07:53:18;;;;;;;0.00;0.00;;;;;;;;;;5072801;28;20032;-82
2023/07/24 07:55:44;;;;;;;0.00;0.00;;;;;;;;;;5072104;28;20476;-80
2023/07/24 07:58:10;;;;;;;0.00;0.00;;;;;;;;;;5055958;28;20047;-80
2023/07/24 08:00:38;;;;;;;0.00;0.00;;;;;;;;;;5072187;28;20045;-82
2023/07/24 08:03:04;;;;;;;0.00;0.00;;;;;;;;;;5055195;28;20516;-81
2023/07/24 08:05:30;;;;;;;0.00;0.00;;;;;;;;;;5073207;28;20115;-81
2023/07/24 08:07:56;;;;;;;0.00;0.00;;;;;;;;;;5071668;28;20124;-81
2023/07/24 08:10:22;;;;;;;0.00;0.00;;;;;;;;;;5071573;28;20115;-81
2023/07/24 08:12:47;;;;;;;0.00;0.00;;;;;;;;;;5072947;28;20051;-81
2023/07/24 08:15:13;;;;;;;0.00;0.00;;;;;;;;;;5071820;28;20050;-81
2023/07/24 08:17:39;;;;;;;0.00;0.00;;;;;;;;;;5072596;28;20395;-81
2023/07/24 08:20:06;;;;;;;0.00;0.00;;;;;;;;;;5071565;28;20033;-82
2023/07/24 08:22:32;;;;;;;0.00;0.00;;;;;;;;;;5071391;28;20036;-82
2023/07/24 08:24:58;;;;;;;0.00;0.00;;;;;;;;;;5054892;28;20037;-82
2023/07/24 08:27:24;;;;;;;0.00;0.00;;;;;;;;;;5072509;28;20047;-82
2023/07/24 08:29:53;;;;;;;0.00;0.00;;;;;;;;;;5072919;28;20036;-82
2023/07/24 08:32:20;;;;;;;0.00;0.00;;;;;;;;;;5072418;28;20043;-82
2023/07/24 08:34:46;;;;;;;0.00;0.00;;;;;;;;;;5054600;28;20102;-81
2023/07/24 08:37:12;;;;;;;0.05;0.00;;;;;;;;;;5072399;28;20052;-81
2023/07/24 08:39:41;;;;;;;0.00;0.00;;;;;;;;;;5071662;28;20029;-81
2023/07/24 08:42:10;;;;;;;0.00;0.00;;;;;;;;;;5072243;28;20045;-81
2023/07/24 08:44:37;;;;;;;0.00;0.00;;;;;;;;;;5070851;28;20057;-80
2023/07/24 08:47:04;;;;;;;0.00;0.00;;;;;;;;;;5071036;28;20044;-78
2023/07/24 08:49:30;;;;;;;0.00;0.00;;;;;;;;;;5072330;28;20040;-79
2023/07/24 08:51:57;;;;;;;0.00;0.00;;;;;;;;;;5071085;28;20036;-80
2023/07/24 08:54:24;;;;;;;0.00;0.00;;;;;;;;;;5071463;28;20040;-79
2023/07/24 08:56:51;;;;;;;0.00;0.00;;;;;;;;;;5072184;28;20400;-80
2023/07/24 08:59:17;;;;;;;0.00;0.00;;;;;;;;;;5072501;28;20055;-81
2023/07/24 09:01:43;;;;;;;0.00;0.00;;;;;;;;;;5071041;28;20388;-81
2023/07/24 09:04:09;;;;;;;0.00;0.00;;;;;;;;;;5055423;28;20120;-81
2023/07/24 09:06:36;;;;;;;0.00;0.00;;;;;;;;;;5075130;28;20048;-80
2023/07/24 09:09:02;;;;;;;0.00;0.00;;;;;;;;;;5059181;28;20041;-81
2023/07/24 09:11:28;;;;;;;0.00;0.00;;;;;;;;;;5074839;28;20048;-81
2023/07/24 09:13:54;;;;;;;0.00;0.00;;;;;;;;;;5075030;28;20102;-81
2023/07/24 09:16:27;;;;;;;0.00;0.00;;;;;;;;;;5076104;28;20115;-81
2023/07/24 09:18:53;;;;;;;0.00;0.00;;;;;;;;;;5076515;28;20036;-81
2023/07/24 09:21:29;;;;;;;0.00;0.00;;;;;;;;;;5075760;28;20433;-81
2023/07/24 09:23:55;;;;;;;0.00;0.00;;;;;;;;;;5074752;28;20037;-81
2023/07/24 09:26:21;;;;;;;0.00;0.00;;;;;;;;;;5074779;28;20044;-81
2023/07/24 09:28:56;;;;;;;0.00;0.00;;;;;;;;;;5076016;28;20447;-81
2023/07/24 09:31:22;;;;;;;0.00;0.00;;;;;;;;;;5074608;28;20044;-81
2023/07/24 09:33:48;;;;;;;0.00;0.00;;;;;;;;;;5075974;28;20037;-81
2023/07/24 09:36:14;;;;;;;0.00;0.00;;;;;;;;;;5074640;28;20044;-82
2023/07/24 09:38:40;;;;;;;0.00;0.00;;;;;;;;;;5074517;28;20048;-81
2023/07/24 09:41:07;;;;;;;0.00;0.00;;;;;;;;;;5074378;28;20048;-83
2023/07/24 09:43:35;;;;;;;0.00;0.00;;;;;;;;;;5057494;28;20036;-83
2023/07/24 09:46:01;;;;;;;0.00;0.00;;;;;;;;;;5074300;28;20096;-82
2023/07/24 09:48:27;;;;;;;0.00;0.00;;;;;;;;;;5075597;28;20048;-81
2023/07/24 09:50:54;;;;;;;0.00;0.00;;;;;;;;;;5075465;28;20051;-82
2023/07/24 09:53:39;;;;;;;0.00;0.00;;;;;;;;;;5075449;28;20064;-82
2023/07/24 09:56:06;;;;;;;0.43;0.10;;;;;;;;;;5075516;28;20076;-82
2023/07/24 09:58:38;;;;;;;0.00;0.00;;;;;;;;;;5075250;28;20124;-82
2023/07/24 10:01:08;;;;;;;0.00;0.00;;;;;;;;;;5074167;28;20040;-82
2023/07/24 10:03:35;;;;;;;0.00;0.00;;;;;;;;;;5074068;28;20128;-82
2023/07/24 10:06:01;;;;;;;0.00;0.00;;;;;;;;;;5057520;28;20075;-82
2023/07/24 10:08:28;;;;;;;0.00;0.00;;;;;;;;;;5075187;28;20048;-82
2023/07/24 10:10:54;;;;;;;0.00;0.00;;;;;;;;;;5075239;28;20078;-85
2023/07/24 10:13:21;;;;;;;0.32;0.10;;;;;;;;;;5073511;28;20080;-81
2023/07/24 10:15:47;;;;;;;0.00;0.00;;;;;;;;;;5072916;28;20041;-81
2023/07/24 10:18:15;;;;;;;0.00;0.00;;;;;;;;;;5073519;28;20081;-83
2023/07/24 10:20:41;;;;;;;0.28;0.10;;;;;;;;;;5074740;28;20111;-83
2023/07/24 10:23:08;;;;;;;0.00;0.00;;;;;;;;;;5074778;28;20365;-83
2023/07/24 10:25:35;;;;;;;0.00;0.00;;;;;;;;;;5073845;28;20041;-83
2023/07/24 10:28:07;;;;;;;0.00;0.00;;;;;;;;;;5074853;28;20044;-83
2023/07/24 10:30:34;;;;;;;0.00;0.00;;;;;;;;;;5073615;28;20128;-82
2023/07/24 10:33:10;;;;;;;0.00;0.00;;;;;;;;;;5073404;28;20406;-82
2023/07/24 10:35:37;;;;;;;0.00;0.00;;;;;;;;;;5073650;28;20040;-82
2023/07/24 10:38:03;;;;;;;0.00;0.00;;;;;;;;;;5073444;28;20417;-82
2023/07/24 10:40:30;;;;;;;0.00;0.00;;;;;;;;;;5074543;28;20032;-83
2023/07/24 10:43:09;;;;;;;0.00;0.00;;;;;;;;;;5073091;28;20045;-81
2023/07/24 10:45:52;;;;;;;0.00;0.00;;;;;;;;;;5073194;28;20067;-81
2023/07/24 10:48:18;;;;;;;0.00;0.00;;;;;;;;;;5073067;28;20190;-81
2023/07/24 10:50:46;;;;;;;0.00;0.00;;;;;;;;;;5073279;28;20060;-80
2023/07/24 10:53:15;;;;;;;0.00;0.00;;;;;;;;;;5074098;28;20040;-81
2023/07/24 10:55:41;;;;;;;0.00;0.00;;;;;;;;;;5073070;28;20041;-82
2023/07/24 10:58:08;;;;;;;0.00;0.00;;;;;;;;;;5056225;28;20044;-82
2023/07/24 11:00:34;;;;;;;0.00;0.00;;;;;;;;;;5072765;28;20068;-82
2023/07/24 11:03:01;;;;;;;0.00;0.00;;;;;;;;;;5072617;28;20041;-82
2023/07/24 11:05:27;;;;;;;0.00;0.00;;;;;;;;;;5074262;28;20079;-81
2023/07/24 11:07:54;;;;;;;0.00;0.00;;;;;;;;;;5072704;28;20373;-82
2023/07/24 11:10:21;;;;;;;0.00;0.00;;;;;;;;;;5073991;28;20450;-82
2023/07/24 11:12:48;;;;;;;0.00;0.00;;;;;;;;;;5073756;28;20049;-82
2023/07/24 11:15:14;;;;;;;0.00;0.00;;;;;;;;;;5073943;28;20048;-81
2023/07/24 11:17:41;;;;;;;0.00;0.00;;;;;;;;;;5072618;28;20048;-82
2023/07/24 11:20:08;;;;;;;0.00;0.00;;;;;;;;;;5072778;28;20040;-82
2023/07/24 11:22:34;;;;;;;0.00;0.00;;;;;;;;;;5073752;28;20123;-82
2023/07/24 11:25:01;;;;;;;0.85;0.10;;;;;;;;;;5072472;28;20044;-82
2023/07/24 11:27:27;;;;;;;0.00;0.00;;;;;;;;;;5071534;28;20392;-82
2023/07/24 11:29:53;;;;;;;0.00;0.00;;;;;;;;;;5071612;28;20055;-82
2023/07/24 11:32:19;;;;;;;0.00;0.00;;;;;;;;;;5072326;28;20041;-82
2023/07/24 11:34:46;;;;;;;0.00;0.00;;;;;;;;;;5073404;28;20059;-82
2023/07/24 11:37:12;;;;;;;0.00;0.00;;;;;;;;;;5072171;28;20121;-82
2023/07/24 11:39:38;;;;;;;0.20;0.00;;;;;;;;;;5072296;28;20403;-82
2023/07/24 11:42:05;;;;;;;0.00;0.00;;;;;;;;;;5073364;28;20040;-82
2023/07/24 11:44:31;;;;;;;0.20;0.00;;;;;;;;;;5071850;28;20094;-82
2023/07/24 11:47:01;;;;;;;0.00;0.00;;;;;;;;;;5073531;28;20059;-82
2023/07/24 11:49:28;;;;;;;0.00;0.00;;;;;;;;;;5072006;28;20059;-82
2023/07/24 11:51:59;;;;;;;0.00;0.00;;;;;;;;;;5073385;28;20044;-82
2023/07/24 11:54:25;;;;;;;0.00;0.00;;;;;;;;;;5071786;28;20044;-82
2023/07/24 11:56:51;;;;;;;0.00;0.00;;;;;;;;;;5073298;28;20406;-81
2023/07/24 11:59:17;;;;;;;0.00;0.00;;;;;;;;;;5073090;28;20040;-82
2023/07/24 12:01:49;;;;;;;0.00;0.00;;;;;;;;;;5071742;28;20040;-82
2023/07/24 12:04:16;;;;;;;0.10;0.00;;;;;;;;;;5072808;28;20462;-83
2023/07/24 12:06:42;;;;;;;0.00;0.00;;;;;;;;;;5071874;28;20048;-82
2023/07/24 12:09:10;;;;;;;0.00;0.00;;;;;;;;;;5072652;28;20496;-82
2023/07/24 12:11:43;;;;;;;0.00;0.00;;;;;;;;;;5073107;28;20384;-82
2023/07/24 12:14:09;;;;;;;0.00;0.00;;;;;;;;;;5072726;28;20123;-82
2023/07/24 12:16:36;;;;;;;0.00;0.00;;;;;;;;;;5071583;28;20044;-82
2023/07/24 12:19:02;;;;;;;0.00;0.00;;;;;;;;;;5072573;28;20060;-82
2023/07/24 12:21:28;;;;;;;0.00;0.00;;;;;;;;;;5071531;28;20044;-82
2023/07/24 12:23:54;;;;;;;0.00;0.00;;;;;;;;;;5071326;28;20040;-82
2023/07/24 12:26:20;;;;;;;0.00;0.00;;;;;;;;;;5071546;28;20202;-82
2023/07/24 12:28:46;;;;;;;0.00;0.00;;;;;;;;;;5071290;28;20051;-82
2023/07/24 12:31:12;;;;;;;0.00;0.00;;;;;;;;;;5072924;28;20048;-84
2023/07/24 12:33:38;;;;;;;0.00;0.00;;;;;;;;;;5054968;28;20058;-83
2023/07/24 12:36:05;;;;;;;0.00;0.00;;;;;;;;;;5072637;28;20051;-81
2023/07/24 12:38:32;;;;;;;0.00;0.00;;;;;;;;;;5072671;28;20032;-81
2023/07/24 12:40:58;;;;;;;0.00;0.00;;;;;;;;;;5071287;28;20037;-83
2023/07/24 12:43:23;;;;;;;0.00;0.00;;;;;;;;;;5072537;28;20033;-83
2023/07/24 12:45:49;;;;;;;0.00;0.00;;;;;;;;;;5071667;28;20190;-82
2023/07/24 12:48:17;;;;;;;0.00;0.00;;;;;;;;;;5055066;28;20044;-85
2023/07/24 12:50:43;;;;;;;0.00;0.00;;;;;;;;;;5071500;28;20381;-82
2023/07/24 12:53:09;;;;;;;0.00;0.00;;;;;;;;;;5071306;28;20040;-82
2023/07/24 12:55:35;;;;;;;0.00;0.00;;;;;;;;;;5072591;28;20103;-81
2023/07/24 12:58:03;;;;;;;0.00;0.00;;;;;;;;;;5072739;28;20616;-81
2023/07/24 13:00:29;;;;;;;0.00;0.00;;;;;;;;;;5071435;28;20494;-81
2023/07/24 13:02:55;;;;;;;0.00;0.00;;;;;;;;;;5071076;28;20044;-82
2023/07/24 13:05:21;;;;;;;0.00;0.00;;;;;;;;;;5072067;28;20036;-82
2023/07/24 13:07:47;;;;;;;0.00;0.00;;;;;;;;;;5072495;28;20044;-82
2023/07/24 13:10:13;;;;;;;0.00;0.00;;;;;;;;;;5070527;28;20041;-83
2023/07/24 13:12:39;;;;;;;0.00;0.00;;;;;;;;;;5071305;28;20384;-82
2023/07/24 13:15:06;;;;;;;0.00;0.00;;;;;;;;;;5071853;28;20060;-81
2023/07/24 13:17:32;;;;;;;0.00;0.00;;;;;;;;;;5070773;28;20041;-81
2023/07/24 13:19:58;;;;;;;0.00;0.00;;;;;;;;;;5070472;28;20044;-81
2023/07/24 13:22:24;;;;;;;0.00;0.00;;;;;;;;;;5072396;28;20044;-81
2023/07/24 13:24:50;;;;;;;0.00;0.00;;;;;;;;;;5070565;28;20365;-82
2023/07/24 13:27:16;;;;;;;0.00;0.00;;;;;;;;;;5070963;28;20053;-81
2023/07/24 13:29:42;;;;;;;0.00;0.00;;;;;;;;;;5053872;28;20098;-81
2023/07/24 13:32:08;;;;;;;0.00;0.00;;;;;;;;;;5071985;28;20029;-81
2023/07/24 13:34:34;;;;;;;0.00;0.00;;;;;;;;;;5072012;28;20049;-83
2023/07/24 13:37:01;;;;;;;0.00;0.00;;;;;;;;;;5070587;28;20049;-81
2023/07/24 13:39:28;;;;;;;0.00;0.00;;;;;;;;;;5070522;28;20488;-81
2023/07/24 13:41:54;;;;;;;0.00;0.00;;;;;;;;;;5071060;28;20052;-81
2023/07/24 13:44:20;;;;;;;0.00;0.00;;;;;;;;;;5072207;28;20349;-81
2023/07/24 13:46:46;;;;;;;0.00;0.00;;;;;;;;;;5071142;28;20063;-81
2023/07/24 13:49:12;;;;;;;0.00;0.00;;;;;;;;;;5072036;28;20039;-81
2023/07/24 13:51:38;;;;;;;0.00;0.00;;;;;;;;;;5072383;28;20127;-81
2023/07/24 13:54:04;;;;;;;0.00;0.00;;;;;;;;;;5074514;28;20044;-81
2023/07/24 13:56:33;;;;;;;0.00;0.00;;;;;;;;;;5074722;28;20044;-81
2023/07/24 13:58:59;;;;;;;0.00;0.00;;;;;;;;;;5075989;28;20480;-81
2023/07/24 14:01:25;;;;;;;0.00;0.00;;;;;;;;;;5075492;28;20111;-81
2023/07/24 14:03:51;;;;;;;0.00;0.00;;;;;;;;;;5074493;28;20052;-81
2023/07/24 14:06:17;;;;;;;0.00;0.00;;;;;;;;;;5075872;28;20040;-81
2023/07/24 14:08:43;;;;;;;0.00;0.00;;;;;;;;;;5074591;28;20554;-81
2023/07/24 14:11:09;;;;;;;0.00;0.00;;;;;;;;;;5074270;28;20040;-82
2023/07/24 14:13:35;;;;;;;0.00;0.00;;;;;;;;;;5075788;28;20044;-81
2023/07/24 14:16:00;;;;;;;0.00;0.00;;;;;;;;;;5073888;28;20407;-82
2023/07/24 14:18:27;;;;;;;0.00;0.00;;;;;;;;;;5074325;28;20048;-81
2023/07/24 14:20:55;;;;;;;0.00;0.00;;;;;;;;;;5074355;28;20072;-81
2023/07/24 14:23:21;;;;;;;0.00;0.00;;;;;;;;;;5074648;28;20040;-81
2023/07/24 14:25:47;;;;;;;0.00;0.00;;;;;;;;;;5074141;28;20044;-81
2023/07/24 14:28:14;;;;;;;0.00;0.00;;;;;;;;;;5074349;28;20044;-81
2023/07/24 14:30:40;;;;;;;0.00;0.00;;;;;;;;;;5074957;28;20043;-81
2023/07/24 14:33:06;;;;;;;0.00;0.00;;;;;;;;;;5075271;28;20032;-81
2023/07/24 14:35:32;;;;;;;0.00;0.00;;;;;;;;;;5075284;28;20043;-82
2023/07/24 14:37:58;;;;;;;0.00;0.00;;;;;;;;;;5074366;28;20123;-82
2023/07/24 14:40:24;;;;;;;0.00;0.00;;;;;;;;;;5074523;28;20067;-82